Time;durP1;ratioP1;P1;durP2;ratioP2;P2;SDS_P1;SDS_P2;PMS_P1;PMS_P2;Temp;Humidity;BMP_temperature;BMP_pressure;BME280_temperature;BME280_humidity;BME280_pressure;Samples;Min_cycle;Max_cycle;Signal;HPM_P1;HPM_P2
2023/05/04 00:00:38;;;;;;;9.23;6.03;;;;;;;;;;5010892;28;20568;-69
2023/05/04 00:03:03;;;;;;;9.37;6.83;;;;;;;;;;5013255;28;20183;-68
2023/05/04 00:05:28;;;;;;;10.63;5.80;;;;;;;;;;5009890;28;20213;-69
2023/05/04 00:07:53;;;;;;;7.20;6.10;;;;;;;;;;5009304;28;20179;-69
2023/05/04 00:10:19;;;;;;;8.10;6.13;;;;;;;;;;5017216;28;20215;-68
2023/05/04 00:12:45;;;;;;;8.13;5.00;;;;;;;;;;5014516;28;20574;-68
2023/05/04 00:15:10;;;;;;;10.67;6.70;;;;;;;;;;5011977;28;20198;-68
2023/05/04 00:17:35;;;;;;;11.93;6.97;;;;;;;;;;5009636;28;20187;-69
2023/05/04 00:20:01;;;;;;;9.50;6.50;;;;;;;;;;5009948;28;20190;-68
2023/05/04 00:22:27;;;;;;;8.53;6.40;;;;;;;;;;5009898;28;20602;-69
2023/05/04 00:24:52;;;;;;;9.43;6.40;;;;;;;;;;5012500;28;20174;-69
2023/05/04 00:27:17;;;;;;;8.63;6.70;;;;;;;;;;5019419;28;20182;-68
2023/05/04 00:29:42;;;;;;;10.47;6.60;;;;;;;;;;5014419;28;20701;-69
2023/05/04 00:32:08;;;;;;;12.67;7.70;;;;;;;;;;5013549;28;20208;-69
2023/05/04 00:34:33;;;;;;;9.93;6.27;;;;;;;;;;5013151;28;20198;-69
2023/05/04 00:36:58;;;;;;;12.87;6.97;;;;;;;;;;5010468;28;20170;-69
2023/05/04 00:39:23;;;;;;;10.73;6.73;;;;;;;;;;5014079;28;20253;-69
2023/05/04 00:41:49;;;;;;;13.37;7.30;;;;;;;;;;5010525;28;20193;-70
2023/05/04 00:44:14;;;;;;;9.13;6.73;;;;;;;;;;5009124;28;20179;-69
2023/05/04 00:46:39;;;;;;;9.10;6.47;;;;;;;;;;5010544;28;20186;-69
2023/05/04 00:49:05;;;;;;;10.13;6.50;;;;;;;;;;5016267;28;20281;-69
2023/05/04 00:51:30;;;;;;;10.80;7.10;;;;;;;;;;5006059;28;20680;-68
2023/05/04 00:53:56;;;;;;;9.03;6.73;;;;;;;;;;5006332;28;20199;-69
2023/05/04 00:56:22;;;;;;;11.43;6.83;;;;;;;;;;5005272;28;20179;-68
2023/05/04 00:58:49;;;;;;;10.40;6.83;;;;;;;;;;5008797;28;20717;-68
2023/05/04 01:01:14;;;;;;;7.93;6.47;;;;;;;;;;5007098;28;20186;-68
2023/05/04 01:03:39;;;;;;;8.83;6.43;;;;;;;;;;5006183;28;20171;-68
2023/05/04 01:06:20;;;;;;;8.97;6.70;;;;;;;;;;5016901;28;20183;-68
2023/05/04 01:08:49;;;;;;;12.60;7.53;;;;;;;;;;5015577;28;20225;-68
2023/05/04 01:11:19;;;;;;;13.27;7.20;;;;;;;;;;5009622;28;20183;-68
2023/05/04 01:13:45;;;;;;;9.03;6.77;;;;;;;;;;5009909;28;20210;-68
2023/05/04 01:16:10;;;;;;;9.53;6.40;;;;;;;;;;5010488;28;20270;-69
2023/05/04 01:18:36;;;;;;;11.67;6.90;;;;;;;;;;5018787;28;20409;-69
2023/05/04 01:21:01;;;;;;;9.53;6.60;;;;;;;;;;5015773;28;20666;-69
2023/05/04 01:23:26;;;;;;;9.33;7.40;;;;;;;;;;5016479;28;20179;-69
2023/05/04 01:26:14;;;;;;;9.53;6.40;;;;;;;;;;5014607;28;20193;-69
2023/05/04 01:28:52;;;;;;;11.23;7.03;;;;;;;;;;5008085;28;20203;-69
2023/05/04 01:31:20;;;;;;;8.90;7.03;;;;;;;;;;5014613;28;20607;-69
2023/05/04 01:33:46;;;;;;;11.90;6.97;;;;;;;;;;5018877;28;20213;-69
2023/05/04 01:36:11;;;;;;;8.47;6.53;;;;;;;;;;5016868;28;20186;-69
2023/05/04 01:38:36;;;;;;;9.23;6.07;;;;;;;;;;5019484;28;20202;-69
2023/05/04 01:41:01;;;;;;;12.20;6.07;;;;;;;;;;5015879;28;20202;-69
2023/05/04 01:43:27;;;;;;;8.93;6.10;;;;;;;;;;5011341;28;20179;-69
2023/05/04 01:45:52;;;;;;;8.77;6.80;;;;;;;;;;5011382;28;20179;-69
2023/05/04 01:48:17;;;;;;;12.00;6.77;;;;;;;;;;5009495;28;20707;-69
2023/05/04 01:50:43;;;;;;;10.60;6.80;;;;;;;;;;5010043;28;20203;-69
2023/05/04 01:53:08;;;;;;;9.27;5.90;;;;;;;;;;5009708;28;20186;-69
2023/05/04 01:55:33;;;;;;;8.70;6.43;;;;;;;;;;5016398;28;20763;-69
2023/05/04 01:57:58;;;;;;;10.30;7.03;;;;;;;;;;5012071;28;20198;-69
2023/05/04 02:00:23;;;;;;;10.60;6.80;;;;;;;;;;5012024;28;20289;-69
2023/05/04 02:02:49;;;;;;;11.43;6.83;;;;;;;;;;5011975;28;20182;-69
2023/05/04 02:05:14;;;;;;;8.03;6.10;;;;;;;;;;5009782;28;20183;-69
2023/05/04 02:07:39;;;;;;;9.10;6.40;;;;;;;;;;5007354;28;20222;-69
2023/05/04 02:10:05;;;;;;;9.70;6.10;;;;;;;;;;5005108;28;20293;-69
2023/05/04 02:12:30;;;;;;;11.23;6.20;;;;;;;;;;5003790;28;20179;-69
2023/05/04 02:14:56;;;;;;;11.43;6.50;;;;;;;;;;5004909;28;20222;-70
2023/05/04 02:17:21;;;;;;;10.00;6.50;;;;;;;;;;5004430;28;20183;-69
2023/05/04 02:19:46;;;;;;;12.30;6.33;;;;;;;;;;5004168;28;20542;-69
2023/05/04 02:22:11;;;;;;;11.57;6.83;;;;;;;;;;5003831;28;20175;-69
2023/05/04 02:24:39;;;;;;;9.73;5.97;;;;;;;;;;5004997;28;20230;-69
2023/05/04 02:27:04;;;;;;;11.30;7.07;;;;;;;;;;5004418;28;20664;-69
2023/05/04 02:29:29;;;;;;;10.57;6.87;;;;;;;;;;5004384;28;20229;-69
2023/05/04 02:31:55;;;;;;;8.83;6.10;;;;;;;;;;5002649;28;20692;-69
2023/05/04 02:34:20;;;;;;;10.50;6.40;;;;;;;;;;5004332;28;20309;-69
2023/05/04 02:36:45;;;;;;;9.07;6.50;;;;;;;;;;5004199;28;20274;-69
2023/05/04 02:39:11;;;;;;;11.57;7.07;;;;;;;;;;5004893;28;20202;-69
2023/05/04 02:41:36;;;;;;;9.27;6.33;;;;;;;;;;5002985;28;20183;-70
2023/05/04 02:44:01;;;;;;;10.30;6.30;;;;;;;;;;5009884;28;20175;-69
2023/05/04 02:46:26;;;;;;;7.33;5.33;;;;;;;;;;5012371;28;20221;-69
2023/05/04 02:48:52;;;;;;;16.60;6.00;;;;;;;;;;5006719;28;20229;-69
2023/05/04 02:51:17;;;;;;;9.93;6.43;;;;;;;;;;5009720;28;20285;-69
2023/05/04 02:53:43;;;;;;;7.73;5.63;;;;;;;;;;5006692;28;20674;-69
2023/05/04 02:56:08;;;;;;;12.40;6.63;;;;;;;;;;5013959;28;20179;-69
2023/05/04 02:58:33;;;;;;;8.80;6.07;;;;;;;;;;5014261;28;20231;-69
2023/05/04 03:00:58;;;;;;;9.70;6.47;;;;;;;;;;5010806;28;20179;-69
2023/05/04 03:03:23;;;;;;;10.27;6.27;;;;;;;;;;5016105;28;20170;-69
2023/05/04 03:05:49;;;;;;;12.80;6.63;;;;;;;;;;5013892;28;20560;-69
2023/05/04 03:08:14;;;;;;;8.63;5.83;;;;;;;;;;5012606;28;20573;-69
2023/05/04 03:10:39;;;;;;;10.13;5.83;;;;;;;;;;5015147;28;20175;-69
2023/05/04 03:13:05;;;;;;;10.50;6.60;;;;;;;;;;5012533;28;20206;-69
2023/05/04 03:15:33;;;;;;;11.33;6.93;;;;;;;;;;5014989;28;20214;-69
2023/05/04 03:17:58;;;;;;;9.30;6.33;;;;;;;;;;5013316;28;20189;-69
2023/05/04 03:20:23;;;;;;;9.67;6.47;;;;;;;;;;5014571;28;20175;-69
2023/05/04 03:22:48;;;;;;;10.50;7.00;;;;;;;;;;5014269;28;20190;-69
2023/05/04 03:25:13;;;;;;;9.20;5.60;;;;;;;;;;5014351;28;20182;-69
2023/05/04 03:27:39;;;;;;;10.90;6.80;;;;;;;;;;5015075;28;20261;-69
2023/05/04 03:30:05;;;;;;;11.30;6.73;;;;;;;;;;5010712;28;20210;-69
2023/05/04 03:32:30;;;;;;;9.73;6.43;;;;;;;;;;5008965;28;20652;-69
2023/05/04 03:34:55;;;;;;;12.20;7.10;;;;;;;;;;5015064;28;20210;-69
2023/05/04 03:37:21;;;;;;;11.03;6.53;;;;;;;;;;5011819;28;20184;-69
2023/05/04 03:39:46;;;;;;;11.13;6.17;;;;;;;;;;5011095;28;20207;-69
2023/05/04 03:42:12;;;;;;;10.67;6.50;;;;;;;;;;5016800;28;20203;-69
2023/05/04 03:44:37;;;;;;;8.80;6.23;;;;;;;;;;5011312;28;20193;-69
2023/05/04 03:47:02;;;;;;;8.03;5.87;;;;;;;;;;5016208;28;20543;-69
2023/05/04 03:49:27;;;;;;;9.13;7.07;;;;;;;;;;5013821;28;20209;-69
2023/05/04 03:51:53;;;;;;;9.57;6.07;;;;;;;;;;5017611;28;20179;-69
2023/05/04 03:54:18;;;;;;;7.50;6.20;;;;;;;;;;5017536;28;20203;-69
2023/05/04 03:56:43;;;;;;;12.27;6.13;;;;;;;;;;5012893;28;20178;-68
2023/05/04 03:59:08;;;;;;;10.73;5.73;;;;;;;;;;5016092;28;20225;-68
2023/05/04 04:01:34;;;;;;;11.70;5.67;;;;;;;;;;5013782;28;20665;-69
2023/05/04 04:03:59;;;;;;;11.60;7.07;;;;;;;;;;5014830;28;20214;-68
2023/05/04 04:06:25;;;;;;;11.23;6.50;;;;;;;;;;5015999;28;20178;-69
2023/05/04 04:08:50;;;;;;;11.77;6.00;;;;;;;;;;5011210;28;20469;-69
2023/05/04 04:11:15;;;;;;;10.27;7.43;;;;;;;;;;5012072;28;20270;-69
2023/05/04 04:13:40;;;;;;;10.10;6.60;;;;;;;;;;5017122;28;20686;-69
2023/05/04 04:16:05;;;;;;;11.03;6.77;;;;;;;;;;5018320;28;20181;-68
2023/05/04 04:18:31;;;;;;;7.60;5.97;;;;;;;;;;5017440;28;20213;-68
2023/05/04 04:20:56;;;;;;;8.87;6.27;;;;;;;;;;5015636;28;20261;-69
2023/05/04 04:23:21;;;;;;;9.07;6.37;;;;;;;;;;5017890;28;20608;-68
2023/05/04 04:25:47;;;;;;;11.67;6.40;;;;;;;;;;5016574;28;20277;-69
2023/05/04 04:28:12;;;;;;;8.87;5.93;;;;;;;;;;5015008;28;20206;-69
2023/05/04 04:30:37;;;;;;;8.03;6.03;;;;;;;;;;5009748;28;20559;-69
2023/05/04 04:33:03;;;;;;;9.00;5.67;;;;;;;;;;5014974;28;20194;-69
2023/05/04 04:35:28;;;;;;;11.67;6.70;;;;;;;;;;5014869;28;20197;-69
2023/05/04 04:37:54;;;;;;;13.17;6.27;;;;;;;;;;5017430;28;20231;-68
2023/05/04 04:40:21;;;;;;;7.97;5.77;;;;;;;;;;5011223;28;20179;-69
2023/05/04 04:42:46;;;;;;;10.00;5.90;;;;;;;;;;5011955;28;20183;-68
2023/05/04 04:45:11;;;;;;;7.77;5.87;;;;;;;;;;5012035;28;20179;-69
2023/05/04 04:47:38;;;;;;;10.97;6.93;;;;;;;;;;5010186;28;20186;-69
2023/05/04 04:50:04;;;;;;;8.90;5.97;;;;;;;;;;5012547;28;20340;-69
2023/05/04 04:52:30;;;;;;;9.43;6.50;;;;;;;;;;5027215;28;20274;-68
2023/05/04 04:54:55;;;;;;;9.17;5.77;;;;;;;;;;5008577;28;20203;-68
2023/05/04 04:57:20;;;;;;;10.20;6.17;;;;;;;;;;5011365;28;20193;-68
2023/05/04 04:59:46;;;;;;;9.10;6.00;;;;;;;;;;5013463;28;20800;-69
2023/05/04 05:02:11;;;;;;;11.87;6.97;;;;;;;;;;5012831;28;20179;-69
2023/05/04 05:04:38;;;;;;;8.87;5.83;;;;;;;;;;5008728;28;20181;-68
2023/05/04 05:07:03;;;;;;;12.27;6.87;;;;;;;;;;5005623;28;20266;-68
2023/05/04 05:09:28;;;;;;;10.30;5.60;;;;;;;;;;5002283;28;20305;-68
2023/05/04 05:11:53;;;;;;;7.83;5.67;;;;;;;;;;5004322;28;20187;-68
2023/05/04 05:14:18;;;;;;;8.63;6.37;;;;;;;;;;5000377;28;20246;-68
2023/05/04 05:16:44;;;;;;;8.43;6.00;;;;;;;;;;5005516;28;20258;-68
2023/05/04 05:19:09;;;;;;;9.43;6.03;;;;;;;;;;5010562;28;20600;-68
2023/05/04 05:21:34;;;;;;;11.07;6.33;;;;;;;;;;5009171;28;20590;-68
2023/05/04 05:24:00;;;;;;;16.80;6.50;;;;;;;;;;5013288;28;20171;-68
2023/05/04 05:26:26;;;;;;;9.63;6.23;;;;;;;;;;5011430;28;20186;-69
2023/05/04 05:28:51;;;;;;;10.17;5.80;;;;;;;;;;5012080;28;20207;-68
2023/05/04 05:31:16;;;;;;;10.33;7.50;;;;;;;;;;5015305;28;20178;-69
2023/05/04 05:33:41;;;;;;;10.80;5.50;;;;;;;;;;5000247;28;20186;-69
2023/05/04 05:36:07;;;;;;;10.43;6.77;;;;;;;;;;5013646;28;20183;-68
2023/05/04 05:38:32;;;;;;;8.40;5.63;;;;;;;;;;5014883;28;20233;-68
2023/05/04 05:40:57;;;;;;;8.77;6.17;;;;;;;;;;5011174;28;20241;-69
2023/05/04 05:43:22;;;;;;;9.60;5.80;;;;;;;;;;5014424;28;20202;-68
2023/05/04 05:45:47;;;;;;;8.60;6.03;;;;;;;;;;5015933;28;20192;-69
2023/05/04 05:48:13;;;;;;;9.30;5.77;;;;;;;;;;5014836;28;20219;-69
2023/05/04 05:50:38;;;;;;;8.73;5.97;;;;;;;;;;5012066;28;20617;-69
2023/05/04 05:53:03;;;;;;;10.20;5.90;;;;;;;;;;5008724;28;20225;-69
2023/05/04 05:55:28;;;;;;;8.30;5.80;;;;;;;;;;5008381;28;20603;-69
2023/05/04 05:57:54;;;;;;;8.03;6.27;;;;;;;;;;5005096;28;20209;-69
2023/05/04 06:00:19;;;;;;;8.07;5.20;;;;;;;;;;5017153;22;20724;-78
2023/05/04 06:02:44;;;;;;;11.27;5.80;;;;;;;;;;5002830;28;20273;-78
2023/05/04 06:05:10;;;;;;;7.30;5.43;;;;;;;;;;5009705;28;20293;-78
2023/05/04 06:07:35;;;;;;;7.23;4.77;;;;;;;;;;5009845;28;20187;-79
2023/05/04 06:10:00;;;;;;;8.53;6.20;;;;;;;;;;5010044;28;20215;-79
2023/05/04 06:12:26;;;;;;;6.83;5.43;;;;;;;;;;5013886;28;20167;-80
2023/05/04 06:14:51;;;;;;;10.23;5.93;;;;;;;;;;5017460;28;20207;-80
2023/05/04 06:17:17;;;;;;;10.30;5.63;;;;;;;;;;5015635;28;20174;-78
2023/05/04 06:19:43;;;;;;;9.90;5.77;;;;;;;;;;5025168;28;20195;-78
2023/05/04 06:22:08;;;;;;;8.50;5.70;;;;;;;;;;5016312;28;20212;-79
2023/05/04 06:24:34;;;;;;;8.53;5.70;;;;;;;;;;5035213;28;20178;-79
2023/05/04 06:26:59;;;;;;;10.40;6.37;;;;;;;;;;5030263;28;20175;-80
2023/05/04 06:29:24;;;;;;;10.50;5.43;;;;;;;;;;5025496;28;20199;-78
2023/05/04 06:31:50;;;;;;;10.63;5.90;;;;;;;;;;5024467;28;20187;-79
2023/05/04 06:34:16;;;;;;;7.93;5.40;;;;;;;;;;5026657;28;20222;-79
2023/05/04 06:36:41;;;;;;;5.80;4.73;;;;;;;;;;5023908;28;20183;-79
2023/05/04 06:39:06;;;;;;;11.10;5.23;;;;;;;;;;5024785;28;20187;-80
2023/05/04 06:41:31;;;;;;;10.03;5.60;;;;;;;;;;5020936;28;20179;-80
2023/05/04 06:43:58;;;;;;;14.30;6.73;;;;;;;;;;5030362;28;20181;-80
2023/05/04 06:46:23;;;;;;;7.37;5.10;;;;;;;;;;5016455;28;20178;-79
2023/05/04 06:48:49;;;;;;;11.13;6.27;;;;;;;;;;5027620;28;20313;-79
2023/05/04 06:51:15;;;;;;;10.67;5.63;;;;;;;;;;5030875;28;20175;-79
2023/05/04 06:53:40;;;;;;;13.63;7.53;;;;;;;;;;5023828;28;20690;-79
2023/05/04 06:56:06;;;;;;;11.40;6.50;;;;;;;;;;5016878;28;20177;-80
2023/05/04 06:58:31;;;;;;;10.73;6.07;;;;;;;;;;5012839;28;21126;-79
2023/05/04 07:00:57;;;;;;;9.27;6.00;;;;;;;;;;5020161;28;20199;-79
2023/05/04 07:03:22;;;;;;;8.93;5.37;;;;;;;;;;5027008;28;20182;-78
2023/05/04 07:05:49;;;;;;;9.70;5.53;;;;;;;;;;5027956;28;20568;-79
2023/05/04 07:08:14;;;;;;;7.05;5.63;;;;;;;;;;5023118;28;20187;-79
2023/05/04 07:10:40;;;;;;;7.60;5.18;;;;;;;;;;5021526;28;20199;-79
2023/05/04 07:13:05;;;;;;;12.10;5.70;;;;;;;;;;5012748;28;20183;-78
2023/05/04 07:15:32;;;;;;;7.95;5.40;;;;;;;;;;5008910;28;20293;-78
2023/05/04 07:17:57;;;;;;;10.50;6.03;;;;;;;;;;5011063;28;20183;-79
2023/05/04 07:20:23;;;;;;;6.82;5.03;;;;;;;;;;5023986;28;20349;-78
2023/05/04 07:22:48;;;;;;;9.07;5.32;;;;;;;;;;5011935;28;20183;-78
2023/05/04 07:25:13;;;;;;;10.55;5.85;;;;;;;;;;5018614;28;20266;-79
2023/05/04 07:27:40;;;;;;;8.40;5.78;;;;;;;;;;5004068;28;21379;-78
2023/05/04 07:30:06;;;;;;;10.43;4.72;;;;;;;;;;4988156;28;20232;-77
2023/05/04 07:32:31;;;;;;;15.35;6.38;;;;;;;;;;4992747;28;20182;-80
2023/05/04 07:34:56;;;;;;;7.57;5.25;;;;;;;;;;4994476;28;20222;-78
2023/05/04 07:37:21;;;;;;;6.97;5.38;;;;;;;;;;4989012;28;20719;-77
2023/05/04 07:39:47;;;;;;;7.57;5.00;;;;;;;;;;4992018;28;20199;-78
2023/05/04 07:42:12;;;;;;;7.10;5.07;;;;;;;;;;4994240;28;20179;-80
2023/05/04 07:44:37;;;;;;;6.95;5.05;;;;;;;;;;4992824;28;20741;-79
2023/05/04 07:47:03;;;;;;;9.55;5.47;;;;;;;;;;4989608;28;20179;-74
2023/05/04 07:49:28;;;;;;;12.15;5.82;;;;;;;;;;4991756;28;20229;-78
2023/05/04 07:51:53;;;;;;;8.32;4.85;;;;;;;;;;4989749;28;20641;-78
2023/05/04 07:54:18;;;;;;;9.60;6.00;;;;;;;;;;4991682;28;20202;-78
2023/05/04 07:56:44;;;;;;;8.52;5.35;;;;;;;;;;4991230;28;20708;-77
2023/05/04 07:59:09;;;;;;;8.23;5.75;;;;;;;;;;4990608;28;20222;-78
2023/05/04 08:01:34;;;;;;;6.90;5.38;;;;;;;;;;4989346;28;20195;-79
2023/05/04 08:03:59;;;;;;;9.45;5.43;;;;;;;;;;4992172;28;20186;-78
2023/05/04 08:06:25;;;;;;;8.10;4.80;;;;;;;;;;4990565;28;20567;-79
2023/05/04 08:08:50;;;;;;;6.40;4.88;;;;;;;;;;4990481;28;20209;-79
2023/05/04 08:11:16;;;;;;;8.18;4.72;;;;;;;;;;4989328;28;20198;-78
2023/05/04 08:13:44;;;;;;;6.03;4.68;;;;;;;;;;4988421;28;20190;-78
2023/05/04 08:16:10;;;;;;;5.82;4.50;;;;;;;;;;4989647;28;22445;-78
2023/05/04 08:18:35;;;;;;;7.85;4.70;;;;;;;;;;4989667;28;20269;-77
2023/05/04 08:21:01;;;;;;;5.53;4.72;;;;;;;;;;4990938;28;20182;-78
2023/05/04 08:23:26;;;;;;;8.98;5.07;;;;;;;;;;5005006;28;20854;-79
2023/05/04 08:25:51;;;;;;;7.18;4.75;;;;;;;;;;4990617;28;20175;-78
2023/05/04 08:28:17;;;;;;;11.07;4.50;;;;;;;;;;4991241;28;20214;-78
2023/05/04 08:30:42;;;;;;;8.32;4.78;;;;;;;;;;4988594;28;20203;-79
2023/05/04 08:33:07;;;;;;;6.78;5.30;;;;;;;;;;4988470;28;20722;-78
2023/05/04 08:35:33;;;;;;;7.07;5.00;;;;;;;;;;4992583;28;20725;-78
2023/05/04 08:37:58;;;;;;;8.38;4.90;;;;;;;;;;4990131;28;20913;-78
2023/05/04 08:40:23;;;;;;;5.68;4.30;;;;;;;;;;4989807;28;20330;-76
2023/05/04 08:42:50;;;;;;;7.72;4.63;;;;;;;;;;4990334;28;20228;-78
2023/05/04 08:45:16;;;;;;;6.93;4.70;;;;;;;;;;4993306;28;20566;-78
2023/05/04 08:47:42;;;;;;;6.28;4.85;;;;;;;;;;4996268;28;20653;-79
2023/05/04 08:50:07;;;;;;;8.23;4.60;;;;;;;;;;4992812;28;20211;-79
2023/05/04 08:52:34;;;;;;;11.25;4.65;;;;;;;;;;4992629;28;22225;-79
2023/05/04 08:55:00;;;;;;;8.25;4.95;;;;;;;;;;4994580;28;20253;-77
2023/05/04 08:57:25;;;;;;;7.30;4.32;;;;;;;;;;4991921;28;20183;-77
2023/05/04 08:59:52;;;;;;;6.15;4.70;;;;;;;;;;4993632;28;20214;-77
2023/05/04 09:02:21;;;;;;;9.77;4.68;;;;;;;;;;5004113;28;20198;-78
2023/05/04 09:04:47;;;;;;;6.93;4.40;;;;;;;;;;4992551;28;20610;-78
2023/05/04 09:07:13;;;;;;;9.25;4.25;;;;;;;;;;4991842;28;20215;-78
2023/05/04 09:09:38;;;;;;;5.30;4.22;;;;;;;;;;5007220;28;20222;-78
2023/05/04 09:12:03;;;;;;;6.90;4.07;;;;;;;;;;4992570;28;20822;-77
2023/05/04 09:14:33;;;;;;;6.55;3.97;;;;;;;;;;4994292;28;20453;-79
2023/05/04 09:16:59;;;;;;;6.05;4.07;;;;;;;;;;4994932;28;20180;-79
2023/05/04 09:19:25;;;;;;;6.28;4.32;;;;;;;;;;4995095;28;20217;-78
2023/05/04 09:21:53;;;;;;;7.25;3.72;;;;;;;;;;4991241;28;21839;-79
2023/05/04 09:24:25;;;;;;;8.25;4.95;;;;;;;;;;4998058;28;20270;-78
2023/05/04 09:26:50;;;;;;;6.65;4.15;;;;;;;;;;4994129;28;20210;-79
2023/05/04 09:29:15;;;;;;;6.90;4.72;;;;;;;;;;4995470;28;20765;-78
2023/05/04 09:31:44;;;;;;;8.43;4.32;;;;;;;;;;4994343;28;20187;-78
2023/05/04 09:34:09;;;;;;;6.40;3.83;;;;;;;;;;4991053;28;20217;-78
2023/05/04 09:36:36;;;;;;;8.45;4.38;;;;;;;;;;5009011;28;20183;-77
2023/05/04 09:39:14;;;;;;;8.48;4.13;;;;;;;;;;4992086;28;20195;-78
2023/05/04 09:41:39;;;;;;;6.57;4.18;;;;;;;;;;4992906;28;20313;-78
2023/05/04 09:44:05;;;;;;;6.55;4.15;;;;;;;;;;5004883;28;20187;-79
2023/05/04 09:46:30;;;;;;;8.43;3.85;;;;;;;;;;5014187;28;20694;-77
2023/05/04 09:48:55;;;;;;;7.53;4.03;;;;;;;;;;5011018;28;20783;-77
2023/05/04 09:51:22;;;;;;;9.45;4.20;;;;;;;;;;5017840;28;20643;-77
2023/05/04 09:53:48;;;;;;;5.75;4.22;;;;;;;;;;5018048;28;20760;-77
2023/05/04 09:56:16;;;;;;;6.63;4.15;;;;;;;;;;5013480;28;20183;-79
2023/05/04 09:58:42;;;;;;;5.45;3.92;;;;;;;;;;5002759;28;20203;-79
2023/05/04 10:01:08;;;;;;;6.95;4.20;;;;;;;;;;4996047;28;20214;-77
2023/05/04 10:03:33;;;;;;;8.50;4.43;;;;;;;;;;4994249;28;21585;-77
2023/05/04 10:06:01;;;;;;;6.93;3.80;;;;;;;;;;4991943;28;20194;-79
2023/05/04 10:08:27;;;;;;;6.50;3.88;;;;;;;;;;4991123;28;20217;-78
2023/05/04 10:10:52;;;;;;;5.88;4.30;;;;;;;;;;4992179;28;20265;-78
2023/05/04 10:13:18;;;;;;;10.55;4.72;;;;;;;;;;4996706;28;20266;-78
2023/05/04 10:15:58;;;;;;;7.63;4.65;;;;;;;;;;4992920;28;20207;-77
2023/05/04 10:18:28;;;;;;;6.85;4.45;;;;;;;;;;4992972;28;20609;-77
2023/05/04 10:21:14;;;;;;;8.63;4.60;;;;;;;;;;4991558;28;20550;-77
2023/05/04 10:23:59;;;;;;;6.35;4.30;;;;;;;;;;4988423;28;20183;-77
2023/05/04 10:26:36;;;;;;;8.45;4.60;;;;;;;;;;4993831;28;20198;-78
2023/05/04 10:29:03;;;;;;;12.60;5.20;;;;;;;;;;4984678;28;20199;-77
2023/05/04 10:31:36;;;;;;;6.38;5.30;;;;;;;;;;4991741;28;20179;-78
2023/05/04 10:34:01;;;;;;;6.93;4.63;;;;;;;;;;4986081;28;20318;-77
2023/05/04 10:36:34;;;;;;;7.15;5.00;;;;;;;;;;4993296;28;20661;-76
2023/05/04 10:38:59;;;;;;;6.78;4.88;;;;;;;;;;4992104;28;20225;-77
2023/05/04 10:41:24;;;;;;;6.57;4.68;;;;;;;;;;4988456;28;20649;-78
2023/05/04 10:44:01;;;;;;;13.77;5.60;;;;;;;;;;4992334;28;20207;-77
2023/05/04 10:46:26;;;;;;;6.95;4.82;;;;;;;;;;4991720;28;20832;-78
2023/05/04 10:48:52;;;;;;;6.65;4.60;;;;;;;;;;4990876;28;20191;-79
2023/05/04 10:51:21;;;;;;;6.95;4.68;;;;;;;;;;4992871;28;20190;-77
2023/05/04 10:53:46;;;;;;;8.13;5.22;;;;;;;;;;4991646;28;20560;-78
2023/05/04 10:56:22;;;;;;;6.22;4.85;;;;;;;;;;4992466;28;20473;-79
2023/05/04 10:58:47;;;;;;;10.20;5.78;;;;;;;;;;4990429;28;20205;-77
2023/05/04 11:01:12;;;;;;;9.15;5.47;;;;;;;;;;4988417;28;20187;-76
2023/05/04 11:03:39;;;;;;;6.95;5.30;;;;;;;;;;4988142;28;20183;-78
2023/05/04 11:06:13;;;;;;;7.88;5.57;;;;;;;;;;4992230;28;20616;-77
2023/05/04 11:08:38;;;;;;;7.05;5.13;;;;;;;;;;4989076;28;20285;-78
2023/05/04 11:11:07;;;;;;;15.32;6.38;;;;;;;;;;4989771;28;20198;-76
2023/05/04 11:13:33;;;;;;;8.05;5.53;;;;;;;;;;4989912;28;20183;-74
2023/05/04 11:15:59;;;;;;;8.18;6.03;;;;;;;;;;4991371;28;20226;-77
2023/05/04 11:18:29;;;;;;;8.57;5.65;;;;;;;;;;4989130;28;20182;-78
2023/05/04 11:20:55;;;;;;;8.38;5.57;;;;;;;;;;4990499;28;20926;-76
2023/05/04 11:23:20;;;;;;;8.65;5.93;;;;;;;;;;4991547;28;20305;-75
2023/05/04 11:25:45;;;;;;;10.38;5.78;;;;;;;;;;4992103;28;20179;-76
2023/05/04 11:28:11;;;;;;;8.30;6.15;;;;;;;;;;4987063;28;20191;-76
2023/05/04 11:30:36;;;;;;;10.35;5.72;;;;;;;;;;4992034;28;20254;-77
2023/05/04 11:33:03;;;;;;;7.20;5.88;;;;;;;;;;4991099;28;20676;-78
2023/05/04 11:35:28;;;;;;;12.80;6.30;;;;;;;;;;4997316;28;20206;-77
2023/05/04 11:37:55;;;;;;;7.25;6.03;;;;;;;;;;5000834;28;20198;-77
2023/05/04 11:40:22;;;;;;;10.80;7.20;;;;;;;;;;5004103;28;22522;-79
2023/05/04 11:42:50;;;;;;;9.75;5.82;;;;;;;;;;4997773;28;20298;-78
2023/05/04 11:45:18;;;;;;;7.68;4.93;;;;;;;;;;4989830;28;20238;-76
2023/05/04 11:47:45;;;;;;;8.18;5.72;;;;;;;;;;4991571;28;20252;-76
2023/05/04 11:50:11;;;;;;;8.43;5.90;;;;;;;;;;4989170;28;20217;-76
2023/05/04 11:52:39;;;;;;;12.90;6.85;;;;;;;;;;4990823;28;20232;-78
2023/05/04 11:55:07;;;;;;;8.63;6.20;;;;;;;;;;4993490;28;20613;-78
2023/05/04 11:57:35;;;;;;;7.97;5.93;;;;;;;;;;4990478;28;20692;-77
2023/05/04 12:00:01;;;;;;;9.05;5.55;;;;;;;;;;5003019;23;20230;-69
2023/05/04 12:02:26;;;;;;;7.78;5.47;;;;;;;;;;4990754;28;20182;-68
2023/05/04 12:04:51;;;;;;;8.93;5.70;;;;;;;;;;4989823;28;20182;-68
2023/05/04 12:07:16;;;;;;;11.15;6.00;;;;;;;;;;4990616;28;20638;-68
2023/05/04 12:09:48;;;;;;;9.80;6.75;;;;;;;;;;4989784;28;21645;-68
2023/05/04 12:12:14;;;;;;;9.48;5.75;;;;;;;;;;4989804;28;20214;-68
2023/05/04 12:15:05;;;;;;;13.10;6.80;;;;;;;;;;4989639;28;20305;-68
2023/05/04 12:17:42;;;;;;;12.20;6.05;;;;;;;;;;4988588;28;20194;-68
2023/05/04 12:20:08;;;;;;;7.25;6.18;;;;;;;;;;4989412;28;20327;-68
2023/05/04 12:22:34;;;;;;;7.43;5.40;;;;;;;;;;4991529;28;20609;-68
2023/05/04 12:24:59;;;;;;;8.05;5.93;;;;;;;;;;4990434;28;20265;-68
2023/05/04 12:27:25;;;;;;;8.10;5.83;;;;;;;;;;4992052;28;20198;-68
2023/05/04 12:29:50;;;;;;;9.57;6.28;;;;;;;;;;4991004;28;20452;-68
2023/05/04 12:32:16;;;;;;;11.15;5.88;;;;;;;;;;4990712;28;20187;-68
2023/05/04 12:34:41;;;;;;;9.80;6.40;;;;;;;;;;4991202;28;20289;-68
2023/05/04 12:37:06;;;;;;;7.80;5.83;;;;;;;;;;4991027;28;20175;-68
2023/05/04 12:39:33;;;;;;;10.95;6.15;;;;;;;;;;4992771;28;22616;-67
2023/05/04 12:41:58;;;;;;;7.20;6.00;;;;;;;;;;4994004;28;20704;-68
2023/05/04 12:44:23;;;;;;;8.85;6.40;;;;;;;;;;4986867;28;20269;-68
2023/05/04 12:46:49;;;;;;;9.70;6.82;;;;;;;;;;4987885;28;20183;-68
2023/05/04 12:49:14;;;;;;;10.38;6.55;;;;;;;;;;4990368;28;20245;-67
2023/05/04 12:51:39;;;;;;;13.10;6.85;;;;;;;;;;4989492;28;20191;-68
2023/05/04 12:54:04;;;;;;;8.13;6.18;;;;;;;;;;4988904;28;20183;-68
2023/05/04 12:56:31;;;;;;;9.25;6.22;;;;;;;;;;4988234;28;20505;-68
2023/05/04 12:58:56;;;;;;;9.07;6.22;;;;;;;;;;4989472;28;20298;-68
2023/05/04 13:01:21;;;;;;;9.70;6.85;;;;;;;;;;4993517;28;20187;-68
2023/05/04 13:03:47;;;;;;;8.17;5.70;;;;;;;;;;4989407;28;20194;-68
2023/05/04 13:06:12;;;;;;;11.30;5.68;;;;;;;;;;4988814;28;20452;-68
2023/05/04 13:08:37;;;;;;;10.03;6.90;;;;;;;;;;4988477;28;20193;-68
2023/05/04 13:11:02;;;;;;;12.77;6.63;;;;;;;;;;4999228;28;20504;-68
2023/05/04 13:13:28;;;;;;;9.83;6.90;;;;;;;;;;4983079;28;20475;-68
2023/05/04 13:15:53;;;;;;;10.98;7.53;;;;;;;;;;5003046;28;20532;-69
2023/05/04 13:18:19;;;;;;;8.40;7.00;;;;;;;;;;4990367;28;20183;-68
2023/05/04 13:20:44;;;;;;;12.95;7.57;;;;;;;;;;4990414;28;20206;-68
2023/05/04 13:23:10;;;;;;;11.57;7.40;;;;;;;;;;4990428;28;20665;-68
2023/05/04 13:25:36;;;;;;;13.52;8.48;;;;;;;;;;4992270;28;22228;-68
2023/05/04 13:28:01;;;;;;;12.13;7.85;;;;;;;;;;4990053;28;20281;-68
2023/05/04 13:30:27;;;;;;;12.35;8.55;;;;;;;;;;4990320;28;20210;-68
2023/05/04 13:32:52;;;;;;;11.10;7.60;;;;;;;;;;4990360;28;20182;-69
2023/05/04 13:35:17;;;;;;;13.25;7.53;;;;;;;;;;4992759;28;20197;-69
2023/05/04 13:37:42;;;;;;;12.68;7.72;;;;;;;;;;4995075;28;20270;-69
2023/05/04 13:40:08;;;;;;;12.97;8.53;;;;;;;;;;4993972;28;20246;-69
2023/05/04 13:42:34;;;;;;;10.63;7.97;;;;;;;;;;4998035;28;20431;-67
2023/05/04 13:44:59;;;;;;;11.15;8.10;;;;;;;;;;4994303;28;20297;-67
2023/05/04 13:47:24;;;;;;;13.45;8.05;;;;;;;;;;5009737;28;20183;-67
2023/05/04 13:49:49;;;;;;;12.93;7.77;;;;;;;;;;5007185;28;20195;-68
2023/05/04 13:52:15;;;;;;;12.73;8.32;;;;;;;;;;5004913;28;20730;-68
2023/05/04 13:54:40;;;;;;;13.27;8.67;;;;;;;;;;5009113;28;20195;-69
2023/05/04 13:57:06;;;;;;;11.48;8.15;;;;;;;;;;5009176;28;20656;-68
2023/05/04 13:59:31;;;;;;;12.52;7.82;;;;;;;;;;4997272;28;20849;-68
2023/05/04 14:01:57;;;;;;;16.38;8.50;;;;;;;;;;4992021;28;20633;-67
2023/05/04 14:04:22;;;;;;;11.97;8.03;;;;;;;;;;4994906;28;20244;-68
2023/05/04 14:06:48;;;;;;;12.63;8.30;;;;;;;;;;4996277;28;20811;-68
2023/05/04 14:09:14;;;;;;;10.98;7.72;;;;;;;;;;4996779;28;20217;-67
2023/05/04 14:11:39;;;;;;;12.02;8.45;;;;;;;;;;4997753;28;20187;-68
2023/05/04 14:14:04;;;;;;;12.70;8.02;;;;;;;;;;4995952;28;20189;-68
2023/05/04 14:16:29;;;;;;;11.23;8.03;;;;;;;;;;4994721;28;20182;-68
2023/05/04 14:18:55;;;;;;;13.23;8.20;;;;;;;;;;4995843;28;20487;-68
2023/05/04 14:21:20;;;;;;;12.45;8.40;;;;;;;;;;4991889;28;20431;-68
2023/05/04 14:23:45;;;;;;;13.70;8.90;;;;;;;;;;4993681;28;20194;-68
2023/05/04 14:26:11;;;;;;;14.52;8.65;;;;;;;;;;4996239;28;20529;-69
2023/05/04 14:28:36;;;;;;;13.90;9.45;;;;;;;;;;4990863;28;20178;-68
2023/05/04 14:31:07;;;;;;;12.10;8.57;;;;;;;;;;4992981;28;20202;-68